createdAt,value
2022-08-02T00:00:40.512Z,98895.11
2022-08-02T00:03:10.968Z,98903.11
2022-08-02T00:05:39.051Z,98899.31
2022-08-02T00:08:08.153Z,98900.20
2022-08-02T00:10:35.918Z,98898.13
2022-08-02T00:13:03.899Z,98896.46
2022-08-02T00:15:31.646Z,98894.29
2022-08-02T00:17:59.386Z,98894.75
2022-08-02T00:20:27.143Z,98896.88
2022-08-02T00:22:54.973Z,98890.13
2022-08-02T00:25:22.789Z,98885.77
2022-08-02T00:27:50.543Z,98891.85
2022-08-02T00:30:18.266Z,98888.23
2022-08-02T00:32:45.967Z,98889.31
2022-08-02T00:35:13.722Z,98889.56
2022-08-02T00:37:42.064Z,98889.66
2022-08-02T00:40:11.180Z,98888.34
2022-08-02T00:42:40.161Z,98894.89
2022-08-02T00:45:08.719Z,98887.48
2022-08-02T00:47:36.617Z,98891.88
2022-08-02T00:50:04.781Z,98891.30
2022-08-02T00:52:32.485Z,98889.58
2022-08-02T00:55:00.201Z,98890.14
2022-08-02T00:57:27.965Z,98891.77
2022-08-02T00:59:55.723Z,98891.73
2022-08-02T01:02:23.479Z,98895.04
2022-08-02T01:04:51.241Z,98900.37
2022-08-02T01:07:19.072Z,98900.25
2022-08-02T01:09:47.023Z,98899.44
2022-08-02T01:12:15.170Z,98901.40
2022-08-02T01:14:47.089Z,98906.59
2022-08-02T01:17:22.354Z,98902.23
2022-08-02T01:20:15.125Z,98900.10
2022-08-02T01:23:09.623Z,98902.70
2022-08-02T01:26:19.438Z,98905.98
2022-08-02T01:28:53.674Z,98908.27
2022-08-02T01:31:43.159Z,98902.08
2022-08-02T01:34:30.850Z,98900.63
2022-08-02T01:37:16.085Z,98896.98
2022-08-02T01:39:45.894Z,98895.13
2022-08-02T01:42:15.371Z,98899.04
2022-08-02T01:44:44.410Z,98897.75
2022-08-02T01:47:19.698Z,98899.34
2022-08-02T01:49:53.071Z,98904.98
2022-08-02T01:52:22.312Z,98905.39
2022-08-02T01:54:56.995Z,98914.00
2022-08-02T01:57:27.947Z,98917.77
2022-08-02T02:00:01.600Z,98919.71
2022-08-02T02:02:32.447Z,98909.65
2022-08-02T02:05:02.491Z,98906.99
2022-08-02T02:07:33.763Z,98899.92
2022-08-02T02:10:03.634Z,98901.34
2022-08-02T02:12:35.009Z,98901.02
2022-08-02T02:15:04.302Z,98896.89
2022-08-02T02:17:52.976Z,98894.91
2022-08-02T02:20:22.321Z,98896.83
2022-08-02T02:22:50.434Z,98900.15
2022-08-02T02:25:24.979Z,98897.73
2022-08-02T02:28:30.666Z,98894.94
2022-08-02T02:31:11.893Z,98902.66
2022-08-02T02:34:14.984Z,98905.83
2022-08-02T02:36:52.422Z,98906.96
2022-08-02T02:39:27.146Z,98905.27
2022-08-02T02:41:58.860Z,98898.80
2022-08-02T02:44:27.118Z,98903.29
2022-08-02T02:46:56.289Z,98905.77
2022-08-02T02:49:26.140Z,98909.05
2022-08-02T02:51:55.919Z,98909.91
2022-08-02T02:54:30.144Z,98909.89
2022-08-02T02:57:05.152Z,98914.70
2022-08-02T02:59:34.736Z,98916.79
2022-08-02T03:02:04.958Z,98914.65
2022-08-02T03:04:55.471Z,98912.27
2022-08-02T03:07:23.802Z,98915.27
2022-08-02T03:09:54.110Z,98919.18
2022-08-02T03:12:30.167Z,98916.91
2022-08-02T03:15:05.544Z,98915.86
2022-08-02T03:17:45.596Z,98914.70
2022-08-02T03:20:15.810Z,98910.39
2022-08-02T03:22:45.223Z,98914.73
2022-08-02T03:25:14.867Z,98915.50
2022-08-02T03:27:42.740Z,98919.39
2022-08-02T03:30:13.368Z,98921.83
2022-08-02T03:32:45.044Z,98923.02
2022-08-02T03:35:21.296Z,98923.98
2022-08-02T03:37:54.490Z,98922.50
2022-08-02T03:40:23.280Z,98929.05
2022-08-02T03:42:51.579Z,98921.15
2022-08-02T03:45:20.227Z,98927.36
2022-08-02T03:47:48.278Z,98929.45
2022-08-02T03:50:16.638Z,98930.23
2022-08-02T03:52:47.673Z,98936.42
2022-08-02T03:55:15.498Z,98936.23
2022-08-02T03:57:43.680Z,98932.63
2022-08-02T04:00:18.205Z,98938.77
2022-08-02T04:02:46.377Z,98937.83
2022-08-02T04:05:14.992Z,98936.45
2022-08-02T04:08:33.657Z,98938.90
2022-08-02T04:10:31.791Z,98941.52
2022-08-02T04:12:59.624Z,98944.78
2022-08-02T04:15:27.357Z,98947.58
2022-08-02T04:17:59.668Z,98950.45
2022-08-02T04:20:33.761Z,98960.46
2022-08-02T04:23:10.591Z,98960.14
2022-08-02T04:25:40.487Z,98959.98
2022-08-02T04:28:16.527Z,98967.83
2022-08-02T04:30:47.645Z,98968.41
2022-08-02T04:33:16.592Z,98970.84
2022-08-02T04:35:45.043Z,98974.72
2022-08-02T04:38:14.909Z,98977.96
2022-08-02T04:40:51.934Z,98974.81
2022-08-02T04:43:20.247Z,98972.39
2022-08-02T04:45:54.591Z,98971.38
2022-08-02T04:48:22.917Z,98975.35
2022-08-02T04:50:51.101Z,98977.59
2022-08-02T04:53:19.077Z,98979.62
2022-08-02T04:55:47.095Z,98983.70
2022-08-02T04:58:38.778Z,98984.88
2022-08-02T05:01:02.916Z,98980.23
2022-08-02T05:03:30.775Z,98983.67
2022-08-02T05:06:00.687Z,98990.04
2022-08-02T05:08:28.496Z,98993.59
2022-08-02T05:10:56.333Z,98990.37
2022-08-02T05:13:24.055Z,98991.73
2022-08-02T05:15:51.799Z,98989.61
2022-08-02T05:18:19.783Z,98987.69
2022-08-02T05:20:47.586Z,98989.32
2022-08-02T05:23:16.519Z,98989.30
2022-08-02T05:25:44.263Z,98992.07
2022-08-02T05:28:12.057Z,98994.78
2022-08-02T05:30:40.591Z,99001.70
2022-08-02T05:33:08.578Z,99002.69
2022-08-02T05:35:36.461Z,99002.11
2022-08-02T05:38:04.505Z,98995.12
2022-08-02T05:40:32.448Z,98997.96
2022-08-02T05:43:00.167Z,98995.42
2022-08-02T05:45:28.348Z,98992.25
2022-08-02T05:47:56.142Z,98992.13
2022-08-02T05:50:24.316Z,98996.81
2022-08-02T05:53:00.480Z,98996.19
2022-08-02T05:55:35.194Z,98994.86
2022-08-02T05:58:13.256Z,98998.15
2022-08-02T06:00:42.860Z,98997.02
2022-08-02T06:03:32.557Z,98998.79
2022-08-02T06:06:05.952Z,98994.65
2022-08-02T06:08:42.508Z,98995.48
2022-08-02T06:11:21.463Z,99002.73
2022-08-02T06:13:49.365Z,99006.99
2022-08-02T06:16:18.040Z,99006.37
2022-08-02T06:19:01.183Z,99007.09
2022-08-02T06:22:32.181Z,99009.81
2022-08-02T06:24:19.871Z,99012.95
2022-08-02T06:26:52.743Z,99020.14
2022-08-02T06:29:23.241Z,99020.22
2022-08-02T06:31:53.214Z,99023.48
2022-08-02T06:34:21.233Z,99024.14
2022-08-02T06:37:09.019Z,99024.03
2022-08-02T06:39:44.942Z,99025.94
2022-08-02T06:42:15.403Z,99023.73
2022-08-02T06:44:47.859Z,99028.17
2022-08-02T06:47:18.091Z,99030.55
2022-08-02T06:49:51.752Z,99031.28
2022-08-02T06:52:27.784Z,99034.69
2022-08-02T06:55:00.549Z,99035.79
2022-08-02T06:57:29.780Z,99040.13
2022-08-02T07:00:01.060Z,99036.42
2022-08-02T07:02:30.431Z,99040.77
2022-08-02T07:04:59.037Z,99036.23
2022-08-02T07:07:28.124Z,99036.75
2022-08-02T07:10:00.724Z,99030.40
2022-08-02T07:12:30.998Z,99030.42
2022-08-02T07:15:04.525Z,99038.23
2022-08-02T07:17:32.798Z,99033.30
2022-08-02T07:20:01.252Z,99039.28
2022-08-02T07:22:29.654Z,99044.19
2022-08-02T07:24:59.268Z,99033.69
2022-08-02T07:27:28.338Z,99028.32
2022-08-02T07:29:56.918Z,99039.55
2022-08-02T07:32:29.437Z,99042.13
2022-08-02T07:34:58.546Z,99037.42
2022-08-02T07:37:52.851Z,99032.19
2022-08-02T07:40:20.059Z,99037.80
2022-08-02T07:42:57.876Z,99032.60
2022-08-02T07:45:28.047Z,99037.23
2022-08-02T07:47:57.088Z,99035.23
2022-08-02T07:50:25.417Z,99039.61
2022-08-02T07:52:57.173Z,99047.38
2022-08-02T07:55:40.174Z,99050.65
2022-08-02T07:58:12.707Z,99052.42
2022-08-02T08:00:43.363Z,99050.73
2022-08-02T08:03:11.697Z,99051.77
2022-08-02T08:05:39.907Z,99055.75
2022-08-02T08:08:08.837Z,99058.43
2022-08-02T08:10:40.664Z,99059.55
2022-08-02T08:13:08.424Z,99070.39
2022-08-02T08:15:36.183Z,99069.98
2022-08-02T08:18:04.071Z,99075.77
2022-08-02T08:20:33.260Z,99076.08
2022-08-02T08:23:00.975Z,99073.23
2022-08-02T08:25:28.670Z,99080.70
2022-08-02T08:27:57.009Z,99084.88
2022-08-02T08:30:25.068Z,99082.77
2022-08-02T08:32:52.779Z,99085.17
2022-08-02T08:35:20.834Z,99079.08
2022-08-02T08:37:49.413Z,99091.89
2022-08-02T08:40:19.313Z,99092.64
2022-08-02T08:42:47.876Z,99095.16
2022-08-02T08:45:16.505Z,99097.77
2022-08-02T08:47:53.286Z,99098.61
2022-08-02T08:50:30.812Z,99100.92
2022-08-02T08:53:07.171Z,99095.02
2022-08-02T08:55:36.550Z,99109.42
2022-08-02T08:58:05.862Z,99110.67
2022-08-02T09:00:36.644Z,99111.31
2022-08-02T09:03:06.051Z,99109.34
2022-08-02T09:05:38.788Z,99118.87
2022-08-02T09:08:06.754Z,99118.40
2022-08-02T09:10:48.471Z,99121.55
2022-08-02T09:13:45.458Z,99121.88
2022-08-02T09:16:14.966Z,99119.81
2022-08-02T09:18:45.561Z,99117.91
2022-08-02T09:21:15.858Z,99119.48
2022-08-02T09:23:46.366Z,99119.90
2022-08-02T09:26:17.196Z,99118.27
2022-08-02T09:28:47.610Z,99121.14
2022-08-02T09:31:18.427Z,99118.19
2022-08-02T09:33:52.712Z,99123.64
2022-08-02T09:36:21.575Z,99122.20
2022-08-02T09:38:56.199Z,99121.79
2022-08-02T09:41:26.382Z,99131.83
2022-08-02T09:44:04.049Z,99126.90
2022-08-02T09:46:39.480Z,99128.27
2022-08-02T09:49:11.576Z,99131.13
2022-08-02T09:51:45.345Z,99126.52
2022-08-02T09:54:18.604Z,99129.20
2022-08-02T09:56:51.387Z,99131.83
2022-08-02T09:59:21.106Z,99133.25
2022-08-02T10:01:51.100Z,99128.96
2022-08-02T10:04:33.859Z,99130.84
2022-08-02T10:07:04.901Z,99127.95
2022-08-02T10:09:33.595Z,99124.63
2022-08-02T10:12:01.838Z,99123.95
2022-08-02T10:14:33.443Z,99121.31
2022-08-02T10:17:01.519Z,99124.73
2022-08-02T10:20:00.507Z,99123.21
2022-08-02T10:22:19.845Z,99119.91
2022-08-02T10:24:48.949Z,99118.59
2022-08-02T10:27:21.528Z,99118.28
2022-08-02T10:29:55.301Z,99117.48
2022-08-02T10:32:37.664Z,99108.64
2022-08-02T10:35:18.788Z,99111.77
2022-08-02T10:38:01.215Z,99113.63
2022-08-02T10:40:53.055Z,99111.80
2022-08-02T10:43:32.999Z,99111.48
2022-08-02T10:46:22.623Z,99102.46
2022-08-02T10:52:07.282Z,99105.45
2022-08-02T10:54:49.740Z,99115.52
2022-08-02T10:57:26.887Z,99112.40
2022-08-02T11:00:04.133Z,99109.66
2022-08-02T11:02:39.456Z,99110.74
2022-08-02T11:05:28.632Z,99108.15
2022-08-02T11:08:19.541Z,99106.81
2022-08-02T11:10:47.637Z,99104.67
2022-08-02T11:13:17.493Z,99105.87
2022-08-02T11:16:03.620Z,99101.05
2022-08-02T11:19:03.671Z,99103.84
2022-08-02T11:21:36.375Z,99097.05
2022-08-02T11:24:29.641Z,99099.56
2022-08-02T11:27:00.080Z,99094.51
2022-08-02T11:29:41.147Z,99089.95
2022-08-02T11:32:19.530Z,99098.48
2022-08-02T11:34:52.489Z,99094.95
2022-08-02T11:37:30.206Z,99093.31
2022-08-02T11:39:58.279Z,99092.73
2022-08-02T11:42:38.051Z,99098.77
2022-08-02T11:45:08.476Z,99095.98
2022-08-02T11:47:51.229Z,99099.55
2022-08-02T11:50:29.883Z,99102.73
2022-08-02T11:52:58.442Z,99100.18
2022-08-02T11:55:31.090Z,99102.29
2022-08-02T11:58:06.077Z,99101.69
2022-08-02T12:00:35.500Z,99104.60
2022-08-02T12:03:03.359Z,99103.15
2022-08-02T12:06:04.674Z,99099.67
2022-08-02T12:08:25.140Z,99099.21
2022-08-02T12:10:53.443Z,99099.09
2022-08-02T12:13:21.308Z,99096.08
2022-08-02T12:15:49.195Z,99096.23
2022-08-02T12:18:40.501Z,99092.48
2022-08-02T12:21:26.454Z,99088.69
2022-08-02T12:24:00.509Z,99087.14
2022-08-02T12:26:30.141Z,99084.95
2022-08-02T12:28:59.474Z,99084.44
2022-08-02T12:31:56.828Z,99084.21
2022-08-02T12:34:31.372Z,99081.48
2022-08-02T12:37:07.151Z,99087.67
2022-08-02T12:39:42.651Z,99089.65
2022-08-02T12:42:13.949Z,99093.98
2022-08-02T12:45:01.295Z,99087.81
2022-08-02T12:47:35.682Z,99089.58
2022-08-02T12:50:16.512Z,99091.96
2022-08-02T12:52:46.882Z,99089.41
2022-08-02T12:55:21.171Z,99089.67
2022-08-02T12:58:02.579Z,99087.13
2022-08-02T13:00:37.009Z,99090.66
2022-08-02T13:03:11.217Z,99089.05
2022-08-02T13:05:56.878Z,99092.64
2022-08-02T13:08:25.713Z,99090.55
2022-08-02T13:10:53.459Z,99082.52
2022-08-02T13:13:21.150Z,99081.61
2022-08-02T13:15:51.163Z,99077.98
2022-08-02T13:18:19.260Z,99076.77
2022-08-02T13:20:46.988Z,99085.98
2022-08-02T13:23:21.653Z,99084.80
2022-08-02T13:25:52.543Z,99079.45
2022-08-02T13:28:21.436Z,99079.20
2022-08-02T13:30:50.137Z,99069.45
2022-08-02T13:33:18.322Z,99062.44
2022-08-02T13:35:47.294Z,99066.60
2022-08-02T13:38:15.059Z,99066.74
2022-08-02T13:41:05.263Z,99064.33
2022-08-02T13:43:52.070Z,99061.91
2022-08-02T13:46:29.399Z,99067.45
2022-08-02T13:48:57.601Z,99064.77
2022-08-02T13:51:25.409Z,99062.35
2022-08-02T13:53:53.714Z,99061.08
2022-08-02T13:56:35.460Z,99059.73
2022-08-02T13:59:21.846Z,99060.33
2022-08-02T14:01:53.964Z,99064.31
2022-08-02T14:04:22.493Z,99061.64
2022-08-02T14:06:50.731Z,99060.43
2022-08-02T14:09:18.861Z,99050.67
2022-08-02T14:11:47.086Z,99046.08
2022-08-02T14:14:16.862Z,99048.04
2022-08-02T14:16:45.696Z,99050.34
2022-08-02T14:19:16.032Z,99045.23
2022-08-02T14:21:46.896Z,99044.91
2022-08-02T14:24:21.273Z,99045.20
2022-08-02T14:26:49.317Z,99033.66
2022-08-02T14:29:17.963Z,99035.21
2022-08-02T14:31:45.838Z,99042.71
2022-08-02T14:34:13.916Z,99039.62
2022-08-02T14:36:41.737Z,99036.30
2022-08-02T14:39:10.134Z,99036.50
2022-08-02T14:41:58.851Z,99044.38
2022-08-02T14:44:25.598Z,99039.59
2022-08-02T14:46:53.376Z,99040.30
2022-08-02T14:49:26.045Z,99035.23
2022-08-02T14:51:55.390Z,99044.45
2022-08-02T14:54:30.058Z,99045.96
2022-08-02T14:57:00.319Z,99044.88
2022-08-02T14:59:28.890Z,99053.09
2022-08-02T15:01:57.203Z,99051.20
2022-08-02T15:04:25.276Z,99043.75
2022-08-02T15:06:53.624Z,99038.02
2022-08-02T15:09:21.504Z,99040.83
2022-08-02T15:11:49.873Z,99040.61
2022-08-02T15:14:22.114Z,99047.78
2022-08-02T15:16:58.042Z,99048.48
2022-08-02T15:19:55.908Z,99049.98
2022-08-02T15:22:19.367Z,99051.80
2022-08-02T15:24:48.027Z,99051.44
2022-08-02T15:27:17.021Z,99045.84
2022-08-02T15:29:46.012Z,99039.81
2022-08-02T15:32:17.463Z,99039.73
2022-08-02T15:34:46.218Z,99040.48
2022-08-02T15:37:13.918Z,99040.98
2022-08-02T15:39:41.703Z,99044.50
2022-08-02T15:42:10.056Z,99046.68
2022-08-02T15:44:38.031Z,99047.05
2022-08-02T15:47:07.061Z,99054.66
2022-08-02T15:49:37.057Z,99059.66
2022-08-02T15:52:11.006Z,99061.34
2022-08-02T15:54:39.091Z,99054.88
2022-08-02T15:57:06.909Z,99060.73
2022-08-02T15:59:34.756Z,99058.27
2022-08-02T16:02:03.396Z,99055.80
2022-08-02T16:04:32.949Z,99056.77
2022-08-02T16:07:01.512Z,99057.31
2022-08-02T16:09:29.726Z,99057.56
2022-08-02T16:11:57.577Z,99065.56
2022-08-02T16:14:25.540Z,99070.08
2022-08-02T16:16:53.670Z,99069.56
2022-08-02T16:19:46.311Z,99068.89
2022-08-02T16:22:11.284Z,99076.16
2022-08-02T16:24:39.689Z,99078.71
2022-08-02T16:27:08.561Z,99087.50
2022-08-02T16:29:37.547Z,99091.48
2022-08-02T16:32:06.021Z,99095.49
2022-08-02T16:34:56.774Z,99098.84
2022-08-02T16:37:21.991Z,99102.46
2022-08-02T16:39:49.717Z,99102.47
2022-08-02T16:42:25.663Z,99107.53
2022-08-02T16:44:54.860Z,99108.33
2022-08-02T16:47:42.760Z,99110.21
2022-08-02T16:50:11.127Z,99106.70
2022-08-02T16:52:39.547Z,99100.98
2022-08-02T16:55:10.866Z,99104.66
2022-08-02T16:57:45.401Z,99107.10
2022-08-02T17:00:18.475Z,99104.85
2022-08-02T17:02:47.009Z,99102.54
2022-08-02T17:05:15.418Z,99103.75
2022-08-02T17:08:07.424Z,99102.95
2022-08-02T17:10:34.372Z,99105.15
2022-08-02T17:13:11.328Z,99100.77
2022-08-02T17:16:08.228Z,99105.11
2022-08-02T17:18:29.830Z,99108.15
2022-08-02T17:20:58.251Z,99106.66
2022-08-02T17:24:03.873Z,99100.27
2022-08-02T17:26:14.071Z,99100.56
2022-08-02T17:29:07.005Z,99099.72
2022-08-02T17:31:42.884Z,99093.94
2022-08-02T17:34:12.512Z,99089.73
2022-08-02T17:36:40.310Z,99087.06
2022-08-02T17:39:08.039Z,99087.02
2022-08-02T17:41:39.746Z,99089.23
2022-08-02T17:44:37.524Z,99090.19
2022-08-02T17:47:07.379Z,99090.05
2022-08-02T17:49:43.939Z,99093.80
2022-08-02T17:52:49.395Z,99090.71
2022-08-02T17:55:02.310Z,99096.66
2022-08-02T17:57:57.552Z,99088.71
2022-08-02T18:00:20.185Z,99086.77
2022-08-02T18:02:50.563Z,99089.68
2022-08-02T18:05:21.002Z,99086.97
2022-08-02T18:07:53.031Z,99090.94
2022-08-02T18:10:24.687Z,99093.88
2022-08-02T18:12:54.382Z,99103.27
2022-08-02T18:15:23.957Z,99101.83
2022-08-02T18:17:51.733Z,99104.38
2022-08-02T18:20:22.611Z,99103.48
2022-08-02T18:22:55.600Z,99103.63
2022-08-02T18:25:37.451Z,99101.30
2022-08-02T18:28:11.885Z,99110.23
2022-08-02T18:30:41.114Z,99112.23
2022-08-02T18:33:55.766Z,99122.89
2022-08-02T18:35:56.607Z,99119.77
2022-08-02T18:38:27.817Z,99117.33
2022-08-02T18:40:55.803Z,99120.52
2022-08-02T18:43:25.293Z,99125.17
2022-08-02T18:46:06.680Z,99123.63
2022-08-02T18:48:46.468Z,99120.84
2022-08-02T18:51:15.682Z,99124.85
2022-08-02T18:53:43.540Z,99123.83
2022-08-02T18:56:19.857Z,99126.61
2022-08-02T18:58:55.984Z,99133.76
2022-08-02T19:01:31.799Z,99139.10
2022-08-02T19:04:02.688Z,99142.94
2022-08-02T19:06:30.823Z,99142.41
2022-08-02T19:09:05.250Z,99145.77
2022-08-02T19:11:38.544Z,99148.73
2022-08-02T19:14:09.298Z,99154.83
2022-08-02T19:16:38.131Z,99158.08
2022-08-02T19:19:06.615Z,99156.45
2022-08-02T19:22:17.277Z,99159.88
2022-08-02T19:24:22.867Z,99167.20
2022-08-02T19:26:52.656Z,99173.23
2022-08-02T19:32:42.563Z,99179.80
2022-08-02T19:35:00.233Z,99179.46
2022-08-02T19:37:37.008Z,99184.73
2022-08-02T19:40:07.983Z,99177.02
2022-08-02T19:43:13.252Z,99186.48
2022-08-02T19:45:50.339Z,99182.34
2022-08-02T19:48:14.903Z,99182.80
2022-08-02T19:50:44.235Z,99182.75
2022-08-02T19:53:18.562Z,99189.63
2022-08-02T19:55:58.788Z,99189.34
2022-08-02T19:58:30.842Z,99184.70
2022-08-02T20:01:00.267Z,99179.73
2022-08-02T20:03:51.563Z,99182.45
2022-08-02T20:06:29.287Z,99184.50
2022-08-02T20:08:59.362Z,99179.06
2022-08-02T20:11:35.021Z,99184.06
2022-08-02T20:14:07.560Z,99181.80
2022-08-02T20:16:36.381Z,99183.46
2022-08-02T20:19:07.772Z,99179.92
2022-08-02T20:21:37.851Z,99181.79
2022-08-02T20:24:10.859Z,99179.14
2022-08-02T20:26:47.471Z,99182.45
2022-08-02T20:29:17.440Z,99179.57
2022-08-02T20:32:05.873Z,99176.42
2022-08-02T20:34:36.362Z,99180.06
2022-08-02T20:37:59.979Z,99182.45
2022-08-02T20:39:53.755Z,99179.46
2022-08-02T20:42:22.585Z,99178.45
2022-08-02T20:44:55.682Z,99181.14
2022-08-02T20:47:27.772Z,99181.29
2022-08-02T20:50:15.398Z,99186.89
2022-08-02T20:52:44.997Z,99188.23
2022-08-02T20:55:16.906Z,99184.66
2022-08-02T20:57:49.081Z,99191.10
2022-08-02T21:00:28.920Z,99181.83
2022-08-02T21:02:56.664Z,99181.92
2022-08-02T21:05:27.014Z,99181.35
2022-08-02T21:08:14.738Z,99180.68
2022-08-02T21:10:50.607Z,99182.14
2022-08-02T21:13:22.915Z,99181.27
2022-08-02T21:15:53.449Z,99180.56
2022-08-02T21:18:28.855Z,99180.67
2022-08-02T21:21:09.600Z,99173.98
2022-08-02T21:23:38.487Z,99174.05
2022-08-02T21:26:28.543Z,99177.98
2022-08-02T21:29:03.816Z,99176.59
2022-08-02T21:31:33.445Z,99180.77
2022-08-02T21:34:26.575Z,99173.35
2022-08-02T21:36:53.383Z,99180.38
2022-08-02T21:39:21.167Z,99181.73
2022-08-02T21:41:49.512Z,99181.35
2022-08-02T21:44:20.011Z,99181.67
2022-08-02T21:46:50.242Z,99181.77
2022-08-02T21:49:20.214Z,99179.81
2022-08-02T21:51:50.242Z,99180.70
2022-08-02T21:54:20.821Z,99184.46
2022-08-02T21:56:53.389Z,99191.56
2022-08-02T21:59:26.045Z,99188.83
2022-08-02T22:01:57.888Z,99181.72
2022-08-02T22:04:26.970Z,99184.95
2022-08-02T22:06:55.645Z,99186.98
2022-08-02T22:09:43.122Z,99183.41
2022-08-02T22:12:18.359Z,99190.73
2022-08-02T22:14:53.957Z,99191.18
2022-08-02T22:17:51.271Z,99187.36
2022-08-02T22:20:20.101Z,99185.27
2022-08-02T22:22:50.415Z,99178.51
2022-08-02T22:25:26.844Z,99183.71
2022-08-02T22:28:37.714Z,99184.17
2022-08-02T22:30:54.708Z,99186.38
2022-08-02T22:33:42.214Z,99185.34
2022-08-02T22:36:11.461Z,99188.27
2022-08-02T22:38:44.358Z,99189.50
2022-08-02T22:41:13.844Z,99190.15
2022-08-02T22:43:42.617Z,99189.32
2022-08-02T22:46:15.654Z,99193.25
2022-08-02T22:48:45.656Z,99191.58
2022-08-02T22:51:14.034Z,99191.02
2022-08-02T22:53:42.661Z,99187.77
2022-08-02T22:56:11.491Z,99191.79
2022-08-02T22:58:48.175Z,99175.15
2022-08-02T22:59:11.540Z,99189.73
2022-08-02T23:01:27.224Z,99196.60
2022-08-02T23:03:55.000Z,99197.33
2022-08-02T23:06:23.048Z,99194.50
2022-08-02T23:08:50.858Z,99188.70
2022-08-02T23:11:18.700Z,99187.88
2022-08-02T23:13:46.510Z,99192.70
2022-08-02T23:16:37.706Z,99189.16
2022-08-02T23:19:24.271Z,99191.14
2022-08-02T23:22:02.435Z,99191.59
2022-08-02T23:24:33.522Z,99190.94
2022-08-02T23:27:01.587Z,99191.29
2022-08-02T23:29:29.452Z,99190.89
2022-08-02T23:31:57.278Z,99187.55
2022-08-02T23:34:26.903Z,99181.88
2022-08-02T23:36:54.592Z,99189.26
2022-08-02T23:39:23.638Z,99190.27
2022-08-02T23:41:55.106Z,99191.77
2022-08-02T23:44:24.777Z,99193.14
2022-08-02T23:46:53.609Z,99193.31
2022-08-02T23:49:22.611Z,99194.58
2022-08-02T23:51:51.563Z,99195.42
2022-08-02T23:54:20.366Z,99196.77
2022-08-02T23:56:48.162Z,99194.71
2022-08-02T23:59:16.504Z,99191.69
